PWSweather.com
Personal Weather Stations
Station Observations
KCAOCEAN4
Jeffries Ranch, Oceanside, CA 92057

Jeffries RanchOceanside, CA 92057

Lat: 33.2463208, Lon: -117.25335080000002

Elevation: 207

Station Type: Davis Vantage Vue

jeffriesranchweather.com

High Low Average
Temperature 77.2°F25.1°C 46.6°F8.1°C 59.6°F15.3°C
Dew Point 46.4°F8.0°C 35.4°F1.9°C 40.1°F4.5°C
Winds 6.0 mph 9.7 kmh Calm Calm 2.0 mph SE3.2 kmh SE
Wind Gusts 11.0 mph17.7 kmh -- 5.0 mph8.0 kmh
Humidity 73% 24% 51%
Pressure 30.09 in1019.0 mb 29.95 in1014.2 mb -
Precipitation 0.00 in0.0 mm - -
Hour Temp Dew Point Humidity Winds Wind Gusts Pressure Precip Precip Rate Daily Precip Total
12:03 AM 51.1°F10.6°C 37.8°F3.2°C 60% 2.0 mph E3.2 kmh E 6.0 mph9.7 kmh 30.05 in1017.6 mb 0.00 in0.0 mm 0.00 in0.0 mm 0.00 in0.0 mm
12:13 AM 50.7°F10.4°C 37.4°F3.0°C 60% 2.0 mph E3.2 kmh E 5.0 mph8.0 kmh 30.05 in1017.6 mb 0.00 in0.0 mm 0.00 in0.0 mm 0.00 in0.0 mm
12:23 AM 50.4°F10.2°C 37.0°F2.8°C 60% 2.9 mph E4.7 kmh E 4.9 mph7.9 kmh 30.04 in1017.3 mb 0.00 in0.0 mm 0.00 in0.0 mm 0.00 in0.0 mm
12:33 AM 50.4°F10.2°C 37.4°F3.0°C 61% 2.0 mph E3.2 kmh E 4.0 mph6.4 kmh 30.04 in1017.3 mb 0.00 in0.0 mm 0.00 in0.0 mm 0.00 in0.0 mm
12:43 AM 49.6°F9.8°C 36.7°F2.6°C 61% 0.9 mph E1.4 kmh E 4.0 mph6.4 kmh 30.04 in1017.3 mb 0.00 in0.0 mm 0.00 in0.0 mm 0.00 in0.0 mm
12:53 AM 50.2°F10.1°C 36.9°F2.7°C 60% 2.0 mph ENE3.2 kmh ENE 4.0 mph6.4 kmh 30.03 in1016.9 mb 0.00 in0.0 mm 0.00 in0.0 mm 0.00 in0.0 mm
01:03 AM 50.0°F10.0°C 37.0°F2.8°C 61% 2.0 mph E3.2 kmh E 6.0 mph9.7 kmh 30.03 in1016.9 mb 0.00 in0.0 mm 0.00 in0.0 mm 0.00 in0.0 mm
01:13 AM 50.0°F10.0°C 37.0°F2.8°C 61% 2.0 mph ENE3.2 kmh ENE 4.0 mph6.4 kmh 30.03 in1016.9 mb 0.00 in0.0 mm 0.00 in0.0 mm 0.00 in0.0 mm
01:23 AM 49.6°F9.8°C 37.2°F2.9°C 62% 2.0 mph ENE3.2 kmh ENE 4.0 mph6.4 kmh 30.03 in1016.9 mb 0.00 in0.0 mm 0.00 in0.0 mm 0.00 in0.0 mm
01:33 AM 49.5°F9.7°C 37.4°F3.0°C 63% 2.0 mph ENE3.2 kmh ENE 4.9 mph7.9 kmh 30.03 in1016.9 mb 0.00 in0.0 mm 0.00 in0.0 mm 0.00 in0.0 mm
01:43 AM 49.5°F9.7°C 37.4°F3.0°C 63% 2.0 mph NE3.2 kmh NE 6.0 mph9.7 kmh 30.03 in1016.9 mb 0.00 in0.0 mm 0.00 in0.0 mm 0.00 in0.0 mm
01:53 AM 49.3°F9.6°C 37.2°F2.9°C 63% 2.0 mph E3.2 kmh E 4.9 mph7.9 kmh 30.03 in1016.9 mb 0.00 in0.0 mm 0.00 in0.0 mm 0.00 in0.0 mm
02:03 AM 48.7°F9.3°C 36.7°F2.6°C 63% 0.9 mph E1.4 kmh E 2.9 mph4.7 kmh 30.03 in1016.9 mb 0.00 in0.0 mm 0.00 in0.0 mm 0.00 in0.0 mm
02:13 AM 48.4°F9.1°C 36.7°F2.6°C 64% 2.0 mph E3.2 kmh E 5.0 mph8.0 kmh 30.03 in1016.9 mb 0.00 in0.0 mm 0.00 in0.0 mm 0.00 in0.0 mm
02:23 AM 48.0°F8.9°C 36.5°F2.5°C 64% 2.9 mph E4.7 kmh E 4.9 mph7.9 kmh 30.03 in1016.9 mb 0.00 in0.0 mm 0.00 in0.0 mm 0.00 in0.0 mm
02:33 AM 48.0°F8.9°C 36.5°F2.5°C 64% 2.0 mph E3.2 kmh E 6.0 mph9.7 kmh 30.03 in1016.9 mb 0.00 in0.0 mm 0.00 in0.0 mm 0.00 in0.0 mm
02:43 AM 48.4°F9.1°C 36.7°F2.6°C 64% 2.0 mph ENE3.2 kmh ENE 8.1 mph13.0 kmh 30.03 in1016.9 mb 0.00 in0.0 mm 0.00 in0.0 mm 0.00 in0.0 mm
02:53 AM 48.4°F9.1°C 36.7°F2.6°C 64% 2.0 mph E3.2 kmh E 4.9 mph7.9 kmh 30.03 in1016.9 mb 0.00 in0.0 mm 0.00 in0.0 mm 0.00 in0.0 mm
03:03 AM 48.0°F8.9°C 36.5°F2.5°C 64% 2.0 mph NE3.2 kmh NE 4.9 mph7.9 kmh 30.03 in1016.9 mb 0.00 in0.0 mm 0.00 in0.0 mm 0.00 in0.0 mm
03:13 AM 47.7°F8.7°C 36.5°F2.5°C 65% 2.9 mph E4.7 kmh E 4.9 mph7.9 kmh 30.03 in1016.9 mb 0.00 in0.0 mm 0.00 in0.0 mm 0.00 in0.0 mm
03:23 AM 47.7°F8.7°C 36.5°F2.5°C 65% 0.9 mph E1.4 kmh E 4.9 mph7.9 kmh 30.03 in1016.9 mb 0.00 in0.0 mm 0.00 in0.0 mm 0.00 in0.0 mm
03:33 AM 47.8°F8.8°C 36.3°F2.4°C 64% 2.9 mph E4.7 kmh E 6.9 mph11.1 kmh 30.02 in1016.6 mb 0.00 in0.0 mm 0.00 in0.0 mm 0.00 in0.0 mm
03:43 AM 47.5°F8.6°C 36.0°F2.2°C 64% 2.0 mph E3.2 kmh E 6.9 mph11.1 kmh 30.02 in1016.6 mb 0.00 in0.0 mm 0.00 in0.0 mm 0.00 in0.0 mm
03:53 AM 46.9°F8.3°C 36.1°F2.3°C 66% 2.0 mph E3.2 kmh E 4.9 mph7.9 kmh 30.02 in1016.6 mb 0.00 in0.0 mm 0.00 in0.0 mm 0.00 in0.0 mm
04:03 AM 46.6°F8.1°C 36.1°F2.3°C 67% 0.9 mph E1.4 kmh E 4.0 mph6.4 kmh 30.02 in1016.6 mb 0.00 in0.0 mm 0.00 in0.0 mm 0.00 in0.0 mm
04:13 AM 46.9°F8.3°C 35.8°F2.1°C 65% 2.0 mph E3.2 kmh E 6.9 mph11.1 kmh 30.02 in1016.6 mb 0.00 in0.0 mm 0.00 in0.0 mm 0.00 in0.0 mm
04:23 AM 47.5°F8.6°C 36.0°F2.2°C 64% 2.9 mph ENE4.7 kmh ENE 8.1 mph13.0 kmh 30.03 in1016.9 mb 0.00 in0.0 mm 0.00 in0.0 mm 0.00 in0.0 mm
04:33 AM 48.0°F8.9°C 36.5°F2.5°C 64% 4.0 mph ENE6.4 kmh ENE 9.0 mph14.5 kmh 30.03 in1016.9 mb 0.00 in0.0 mm 0.00 in0.0 mm 0.00 in0.0 mm
04:43 AM 47.8°F8.8°C 36.3°F2.4°C 64% 4.9 mph NE7.9 kmh NE 8.9 mph14.3 kmh 30.03 in1016.9 mb 0.00 in0.0 mm 0.00 in0.0 mm 0.00 in0.0 mm
04:53 AM 47.8°F8.8°C 36.3°F2.4°C 64% 2.0 mph E3.2 kmh E 8.1 mph13.0 kmh 30.03 in1016.9 mb 0.00 in0.0 mm 0.00 in0.0 mm 0.00 in0.0 mm
05:03 AM 47.8°F8.8°C 35.8°F2.1°C 63% 4.0 mph NE6.4 kmh NE 8.1 mph13.0 kmh 30.03 in1016.9 mb 0.00 in0.0 mm 0.00 in0.0 mm 0.00 in0.0 mm
05:13 AM 47.7°F8.7°C 35.6°F2.0°C 63% 4.0 mph ENE6.4 kmh ENE 8.1 mph13.0 kmh 30.03 in1016.9 mb 0.00 in0.0 mm 0.00 in0.0 mm 0.00 in0.0 mm
05:23 AM 47.5°F8.6°C 35.6°F2.0°C 63% 2.9 mph ENE4.7 kmh ENE 8.1 mph13.0 kmh 30.03 in1016.9 mb 0.00 in0.0 mm 0.00 in0.0 mm 0.00 in0.0 mm
05:33 AM 47.1°F8.4°C 35.6°F2.0°C 64% 0.9 mph ESE1.4 kmh ESE 6.0 mph9.7 kmh 30.03 in1016.9 mb 0.00 in0.0 mm 0.00 in0.0 mm 0.00 in0.0 mm
05:43 AM 46.9°F8.3°C 35.4°F1.9°C 64% 2.0 mph E3.2 kmh E 6.0 mph9.7 kmh 30.03 in1016.9 mb 0.00 in0.0 mm 0.00 in0.0 mm 0.00 in0.0 mm
05:53 AM 47.8°F8.8°C 35.4°F1.9°C 62% 4.0 mph ENE6.4 kmh ENE 9.0 mph14.5 kmh 30.03 in1016.9 mb 0.00 in0.0 mm 0.00 in0.0 mm 0.00 in0.0 mm
06:03 AM 48.0°F8.9°C 35.6°F2.0°C 62% 2.9 mph E4.7 kmh E 6.9 mph11.1 kmh 30.04 in1017.3 mb 0.00 in0.0 mm 0.00 in0.0 mm 0.00 in0.0 mm
06:13 AM 48.2°F9.0°C 35.8°F2.1°C 62% 2.9 mph ENE4.7 kmh ENE 6.0 mph9.7 kmh 30.04 in1017.3 mb 0.00 in0.0 mm 0.00 in0.0 mm 0.00 in0.0 mm
06:23 AM 47.8°F8.8°C 35.8°F2.1°C 63% 2.9 mph ENE4.7 kmh ENE 6.9 mph11.1 kmh 30.04 in1017.3 mb 0.00 in0.0 mm 0.00 in0.0 mm 0.00 in0.0 mm
06:33 AM 48.0°F8.9°C 35.6°F2.0°C 62% 2.9 mph E4.7 kmh E 7.0 mph11.3 kmh 30.05 in1017.6 mb 0.00 in0.0 mm 0.00 in0.0 mm 0.00 in0.0 mm
06:43 AM 47.7°F8.7°C 35.6°F2.0°C 63% 2.9 mph ENE4.7 kmh ENE 8.1 mph13.0 kmh 30.06 in1017.9 mb 0.00 in0.0 mm 0.00 in0.0 mm 0.00 in0.0 mm
06:53 AM 47.1°F8.4°C 35.6°F2.0°C 64% 2.9 mph E4.7 kmh E 5.0 mph8.0 kmh 30.06 in1017.9 mb 0.00 in0.0 mm 0.00 in0.0 mm 0.00 in0.0 mm
07:03 AM 46.8°F8.2°C 35.6°F2.0°C 65% 0.9 mph E1.4 kmh E 4.0 mph6.4 kmh 30.06 in1017.9 mb 0.00 in0.0 mm 0.00 in0.0 mm 0.00 in0.0 mm
07:13 AM 47.3°F8.5°C 35.8°F2.1°C 64% 2.0 mph E3.2 kmh E 4.9 mph7.9 kmh 30.06 in1017.9 mb 0.00 in0.0 mm 0.00 in0.0 mm 0.00 in0.0 mm
07:23 AM 48.6°F9.2°C 36.1°F2.3°C 62% 2.0 mph SE3.2 kmh SE 6.0 mph9.7 kmh 30.07 in1018.3 mb 0.00 in0.0 mm 0.00 in0.0 mm 0.00 in0.0 mm
07:33 AM 48.6°F9.2°C 36.1°F2.3°C 62% 0.9 mph ENE1.4 kmh ENE 2.9 mph4.7 kmh 30.07 in1018.3 mb 0.00 in0.0 mm 0.00 in0.0 mm 0.00 in0.0 mm
07:43 AM 49.8°F9.9°C 36.1°F2.3°C 59% 2.9 mph ENE4.7 kmh ENE 6.0 mph9.7 kmh 30.07 in1018.3 mb 0.00 in0.0 mm 0.00 in0.0 mm 0.00 in0.0 mm
07:53 AM 51.3°F10.7°C 37.0°F2.8°C 58% 0.9 mph E1.4 kmh E 2.9 mph4.7 kmh 30.08 in1018.6 mb 0.00 in0.0 mm 0.00 in0.0 mm 0.00 in0.0 mm
08:03 AM 52.3°F11.3°C 36.7°F2.6°C 55% 2.0 mph E3.2 kmh E 6.0 mph9.7 kmh 30.08 in1018.6 mb 0.00 in0.0 mm 0.00 in0.0 mm 0.00 in0.0 mm
08:13 AM 53.4°F11.9°C 37.2°F2.9°C 54% 2.0 mph E3.2 kmh E 6.0 mph9.7 kmh 30.08 in1018.6 mb 0.00 in0.0 mm 0.00 in0.0 mm 0.00 in0.0 mm
08:23 AM 54.7°F12.6°C 37.4°F3.0°C 52% 2.0 mph NE3.2 kmh NE 6.0 mph9.7 kmh 30.08 in1018.6 mb 0.00 in0.0 mm 0.00 in0.0 mm 0.00 in0.0 mm
08:33 AM 56.1°F13.4°C 38.3°F3.5°C 51% 2.0 mph NE3.2 kmh NE 4.9 mph7.9 kmh 30.08 in1018.6 mb 0.00 in0.0 mm 0.00 in0.0 mm 0.00 in0.0 mm
08:43 AM 57.6°F14.2°C 39.0°F3.9°C 50% 2.9 mph NE4.7 kmh NE 6.0 mph9.7 kmh 30.09 in1019.0 mb 0.00 in0.0 mm 0.00 in0.0 mm 0.00 in0.0 mm
08:53 AM 59.4°F15.2°C 40.3°F4.6°C 49% 2.9 mph NE4.7 kmh NE 8.9 mph14.3 kmh 30.08 in1018.6 mb 0.00 in0.0 mm 0.00 in0.0 mm 0.00 in0.0 mm
09:03 AM 61.0°F16.1°C 39.6°F4.2°C 45% 2.0 mph NE3.2 kmh NE 4.9 mph7.9 kmh 30.09 in1019.0 mb 0.00 in0.0 mm 0.00 in0.0 mm 0.00 in0.0 mm
09:13 AM 62.1°F16.7°C 38.7°F3.7°C 42% 2.0 mph NE3.2 kmh NE 4.9 mph7.9 kmh 30.08 in1018.6 mb 0.00 in0.0 mm 0.00 in0.0 mm 0.00 in0.0 mm
09:23 AM 63.3°F17.4°C 39.2°F4.0°C 41% 0.9 mph ENE1.4 kmh ENE 2.9 mph4.7 kmh 30.09 in1019.0 mb 0.00 in0.0 mm 0.00 in0.0 mm 0.00 in0.0 mm
09:33 AM 64.9°F18.3°C 40.6°F4.8°C 41% 2.0 mph ENE3.2 kmh ENE 2.9 mph4.7 kmh 30.09 in1019.0 mb 0.00 in0.0 mm 0.00 in0.0 mm 0.00 in0.0 mm
09:43 AM 67.1°F19.5°C 41.4°F5.2°C 39% Calm Calm 0.9 mph1.4 kmh 30.09 in1019.0 mb 0.00 in0.0 mm 0.00 in0.0 mm 0.00 in0.0 mm
09:53 AM 68.2°F20.1°C 42.3°F5.7°C 39% Calm Calm 2.0 mph3.2 kmh 30.09 in1019.0 mb 0.00 in0.0 mm 0.00 in0.0 mm 0.00 in0.0 mm
10:03 AM 69.4°F20.8°C 40.6°F4.8°C 35% Calm Calm 2.0 mph3.2 kmh 30.09 in1019.0 mb 0.00 in0.0 mm 0.00 in0.0 mm 0.00 in0.0 mm
10:13 AM 70.7°F21.5°C 41.0°F5.0°C 34% Calm Calm 0.9 mph1.4 kmh 30.09 in1019.0 mb 0.00 in0.0 mm 0.00 in0.0 mm 0.00 in0.0 mm
10:23 AM 72.1°F22.3°C 41.4°F5.2°C 33% Calm Calm 0.9 mph1.4 kmh 30.09 in1019.0 mb 0.00 in0.0 mm 0.00 in0.0 mm 0.00 in0.0 mm
10:33 AM 72.3°F22.4°C 39.9°F4.4°C 31% 0.9 mph WSW1.4 kmh WSW 2.9 mph4.7 kmh 30.08 in1018.6 mb 0.00 in0.0 mm 0.00 in0.0 mm 0.00 in0.0 mm
10:43 AM 73.9°F23.3°C 39.7°F4.3°C 29% Calm Calm 2.0 mph3.2 kmh 30.08 in1018.6 mb 0.00 in0.0 mm 0.00 in0.0 mm 0.00 in0.0 mm
10:53 AM 74.5°F23.6°C 38.3°F3.5°C 27% 0.9 mph S1.4 kmh S 2.9 mph4.7 kmh 30.07 in1018.3 mb 0.00 in0.0 mm 0.00 in0.0 mm 0.00 in0.0 mm
11:03 AM 75.6°F24.2°C 37.2°F2.9°C 25% 0.9 mph SSE1.4 kmh SSE 2.9 mph4.7 kmh 30.07 in1018.3 mb 0.00 in0.0 mm 0.00 in0.0 mm 0.00 in0.0 mm
11:13 AM 76.1°F24.5°C 37.8°F3.2°C 25% 0.9 mph SW1.4 kmh SW 2.9 mph4.7 kmh 30.06 in1017.9 mb 0.00 in0.0 mm 0.00 in0.0 mm 0.00 in0.0 mm
11:23 AM 75.9°F24.4°C 36.5°F2.5°C 24% 2.0 mph WSW3.2 kmh WSW 4.9 mph7.9 kmh 30.05 in1017.6 mb 0.00 in0.0 mm 0.00 in0.0 mm 0.00 in0.0 mm
11:33 AM 76.6°F24.8°C 37.2°F2.9°C 24% 2.0 mph WSW3.2 kmh WSW 4.9 mph7.9 kmh 30.04 in1017.3 mb 0.00 in0.0 mm 0.00 in0.0 mm 0.00 in0.0 mm
11:43 AM 77.2°F25.1°C 38.7°F3.7°C 25% 2.9 mph W4.7 kmh W 6.0 mph9.7 kmh 30.04 in1017.3 mb 0.00 in0.0 mm 0.00 in0.0 mm 0.00 in0.0 mm
11:53 AM 77.2°F25.1°C 40.6°F4.8°C 27% 4.0 mph WNW6.4 kmh WNW 8.9 mph14.3 kmh 30.03 in1016.9 mb 0.00 in0.0 mm 0.00 in0.0 mm 0.00 in0.0 mm
12:03 PM 77.2°F25.1°C 40.6°F4.8°C 27% 4.0 mph WNW6.4 kmh WNW 8.1 mph13.0 kmh 30.02 in1016.6 mb 0.00 in0.0 mm 0.00 in0.0 mm 0.00 in0.0 mm
12:13 PM 76.5°F24.7°C 41.0°F5.0°C 28% 4.9 mph WNW7.9 kmh WNW 8.1 mph13.0 kmh 30.02 in1016.6 mb 0.00 in0.0 mm 0.00 in0.0 mm 0.00 in0.0 mm
12:23 PM 75.9°F24.4°C 40.5°F4.7°C 28% 4.9 mph NW7.9 kmh NW 9.0 mph14.5 kmh 30.01 in1016.3 mb 0.00 in0.0 mm 0.00 in0.0 mm 0.00 in0.0 mm
12:33 PM 75.9°F24.4°C 39.6°F4.2°C 27% 4.0 mph WSW6.4 kmh WSW 8.1 mph13.0 kmh 30.01 in1016.3 mb 0.00 in0.0 mm 0.00 in0.0 mm 0.00 in0.0 mm
12:43 PM 75.6°F24.2°C 41.0°F5.0°C 29% 4.9 mph NW7.9 kmh NW 8.1 mph13.0 kmh 30.00 in1015.9 mb 0.00 in0.0 mm 0.00 in0.0 mm 0.00 in0.0 mm
12:53 PM 75.4°F24.1°C 41.7°F5.4°C 30% 4.9 mph WSW7.9 kmh WSW 11.0 mph17.7 kmh 29.99 in1015.6 mb 0.00 in0.0 mm 0.00 in0.0 mm 0.00 in0.0 mm
01:03 PM 75.6°F24.2°C 41.9°F5.5°C 30% 4.9 mph W7.9 kmh W 10.1 mph16.3 kmh 29.99 in1015.6 mb 0.00 in0.0 mm 0.00 in0.0 mm 0.00 in0.0 mm
01:14 PM 75.7°F24.3°C 42.1°F5.6°C 30% 4.9 mph NW7.9 kmh NW 8.9 mph14.3 kmh 29.99 in1015.6 mb 0.00 in0.0 mm 0.00 in0.0 mm 0.00 in0.0 mm
01:24 PM 75.4°F24.1°C 41.0°F5.0°C 29% 6.0 mph NW9.7 kmh NW 8.9 mph14.3 kmh 29.98 in1015.2 mb 0.00 in0.0 mm 0.00 in0.0 mm 0.00 in0.0 mm
01:34 PM 75.6°F24.2°C 43.7°F6.5°C 32% 4.9 mph WSW7.9 kmh WSW 10.1 mph16.3 kmh 29.98 in1015.2 mb 0.00 in0.0 mm 0.00 in0.0 mm 0.00 in0.0 mm
01:44 PM 75.2°F24.0°C 42.4°F5.8°C 31% 4.9 mph WSW7.9 kmh WSW 11.0 mph17.7 kmh 29.98 in1015.2 mb 0.00 in0.0 mm 0.00 in0.0 mm 0.00 in0.0 mm
01:54 PM 75.4°F24.1°C 42.6°F5.9°C 31% 4.9 mph W7.9 kmh W 10.1 mph16.3 kmh 29.97 in1014.9 mb 0.00 in0.0 mm 0.00 in0.0 mm 0.00 in0.0 mm
02:04 PM 75.4°F24.1°C 43.5°F6.4°C 32% 4.0 mph NW6.4 kmh NW 6.9 mph11.1 kmh 29.97 in1014.9 mb 0.00 in0.0 mm 0.00 in0.0 mm 0.00 in0.0 mm
02:14 PM 75.6°F24.2°C 43.7°F6.5°C 32% 4.0 mph WSW6.4 kmh WSW 10.1 mph16.3 kmh 29.96 in1014.6 mb 0.00 in0.0 mm 0.00 in0.0 mm 0.00 in0.0 mm
02:24 PM 75.9°F24.4°C 43.9°F6.6°C 32% 4.0 mph SSW6.4 kmh SSW 8.9 mph14.3 kmh 29.96 in1014.6 mb 0.00 in0.0 mm 0.00 in0.0 mm 0.00 in0.0 mm
02:34 PM 75.9°F24.4°C 42.3°F5.7°C 30% 4.0 mph WSW6.4 kmh WSW 8.9 mph14.3 kmh 29.96 in1014.6 mb 0.00 in0.0 mm 0.00 in0.0 mm 0.00 in0.0 mm
02:44 PM 75.7°F24.3°C 42.1°F5.6°C 30% 4.0 mph W6.4 kmh W 8.9 mph14.3 kmh 29.96 in1014.6 mb 0.00 in0.0 mm 0.00 in0.0 mm 0.00 in0.0 mm
02:54 PM 76.3°F24.6°C 42.6°F5.9°C 30% 4.0 mph SW6.4 kmh SW 8.1 mph13.0 kmh 29.95 in1014.2 mb 0.00 in0.0 mm 0.00 in0.0 mm 0.00 in0.0 mm
03:04 PM 75.6°F24.2°C 42.8°F6.0°C 31% 4.0 mph W6.4 kmh W 8.1 mph13.0 kmh 29.95 in1014.2 mb 0.00 in0.0 mm 0.00 in0.0 mm 0.00 in0.0 mm
03:14 PM 74.8°F23.8°C 43.0°F6.1°C 32% 4.0 mph W6.4 kmh W 9.0 mph14.5 kmh 29.95 in1014.2 mb 0.00 in0.0 mm 0.00 in0.0 mm 0.00 in0.0 mm
03:24 PM 73.9°F23.3°C 42.3°F5.7°C 32% 4.9 mph WSW7.9 kmh WSW 10.1 mph16.3 kmh 29.95 in1014.2 mb 0.00 in0.0 mm 0.00 in0.0 mm 0.00 in0.0 mm
03:34 PM 73.9°F23.3°C 43.0°F6.1°C 33% 4.0 mph W6.4 kmh W 8.1 mph13.0 kmh 29.95 in1014.2 mb 0.00 in0.0 mm 0.00 in0.0 mm 0.00 in0.0 mm
03:44 PM 73.9°F23.3°C 43.0°F6.1°C 33% 4.0 mph WSW6.4 kmh WSW 8.9 mph14.3 kmh 29.95 in1014.2 mb 0.00 in0.0 mm 0.00 in0.0 mm 0.00 in0.0 mm
03:54 PM 72.9°F22.7°C 42.8°F6.0°C 34% 4.9 mph W7.9 kmh W 10.0 mph16.1 kmh 29.95 in1014.2 mb 0.00 in0.0 mm 0.00 in0.0 mm 0.00 in0.0 mm
04:04 PM 72.1°F22.3°C 43.7°F6.5°C 36% 4.9 mph WNW7.9 kmh WNW 8.9 mph14.3 kmh 29.95 in1014.2 mb 0.00 in0.0 mm 0.00 in0.0 mm 0.00 in0.0 mm
04:14 PM 72.1°F22.3°C 43.7°F6.5°C 36% 2.9 mph WSW4.7 kmh WSW 8.1 mph13.0 kmh 29.95 in1014.2 mb 0.00 in0.0 mm 0.00 in0.0 mm 0.00 in0.0 mm
04:24 PM 71.8°F22.1°C 43.3°F6.3°C 36% 2.9 mph SW4.7 kmh SW 6.9 mph11.1 kmh 29.95 in1014.2 mb 0.00 in0.0 mm 0.00 in0.0 mm 0.00 in0.0 mm
04:34 PM 71.6°F22.0°C 43.2°F6.2°C 36% 2.0 mph SW3.2 kmh SW 6.0 mph9.7 kmh 29.95 in1014.2 mb 0.00 in0.0 mm 0.00 in0.0 mm 0.00 in0.0 mm
04:44 PM 71.1°F21.7°C 43.5°F6.4°C 37% 2.0 mph WSW3.2 kmh WSW 4.0 mph6.4 kmh 29.95 in1014.2 mb 0.00 in0.0 mm 0.00 in0.0 mm 0.00 in0.0 mm
04:54 PM 71.1°F21.7°C 43.5°F6.4°C 37% 0.9 mph SE1.4 kmh SE 2.9 mph4.7 kmh 29.96 in1014.6 mb 0.00 in0.0 mm 0.00 in0.0 mm 0.00 in0.0 mm
05:04 PM 69.6°F20.9°C 43.5°F6.4°C 39% 0.9 mph SSW1.4 kmh SSW 4.0 mph6.4 kmh 29.96 in1014.6 mb 0.00 in0.0 mm 0.00 in0.0 mm 0.00 in0.0 mm
05:14 PM 68.5°F20.3°C 43.3°F6.3°C 40% 0.9 mph S1.4 kmh S 4.0 mph6.4 kmh 29.97 in1014.9 mb 0.00 in0.0 mm 0.00 in0.0 mm 0.00 in0.0 mm
05:24 PM 67.3°F19.6°C 43.3°F6.3°C 42% 0.9 mph S1.4 kmh S 3.0 mph4.8 kmh 29.96 in1014.6 mb 0.00 in0.0 mm 0.00 in0.0 mm 0.00 in0.0 mm
05:34 PM 66.4°F19.1°C 43.2°F6.2°C 43% 2.0 mph SSE3.2 kmh SSE 4.0 mph6.4 kmh 29.96 in1014.6 mb 0.00 in0.0 mm 0.00 in0.0 mm 0.00 in0.0 mm
05:44 PM 65.5°F18.6°C 43.0°F6.1°C 44% 0.9 mph SW1.4 kmh SW 4.0 mph6.4 kmh 29.97 in1014.9 mb 0.00 in0.0 mm 0.00 in0.0 mm 0.00 in0.0 mm
05:54 PM 64.9°F18.3°C 43.2°F6.2°C 45% 2.0 mph SSE3.2 kmh SSE 4.0 mph6.4 kmh 29.97 in1014.9 mb 0.00 in0.0 mm 0.00 in0.0 mm 0.00 in0.0 mm
06:04 PM 64.6°F18.1°C 42.8°F6.0°C 45% 0.9 mph S1.4 kmh S 2.9 mph4.7 kmh 29.97 in1014.9 mb 0.00 in0.0 mm 0.00 in0.0 mm 0.00 in0.0 mm
06:14 PM 64.0°F17.8°C 42.8°F6.0°C 46% 0.9 mph SE1.4 kmh SE 2.9 mph4.7 kmh 29.98 in1015.2 mb 0.00 in0.0 mm 0.00 in0.0 mm 0.00 in0.0 mm
06:24 PM 64.0°F17.8°C 43.3°F6.3°C 47% 0.9 mph SW1.4 kmh SW 5.0 mph8.0 kmh 29.98 in1015.2 mb 0.00 in0.0 mm 0.00 in0.0 mm 0.00 in0.0 mm
06:34 PM 63.7°F17.6°C 43.2°F6.2°C 47% 2.0 mph S3.2 kmh S 4.0 mph6.4 kmh 29.98 in1015.2 mb 0.00 in0.0 mm 0.00 in0.0 mm 0.00 in0.0 mm
06:44 PM 63.3°F17.4°C 43.9°F6.6°C 49% 0.9 mph SSW1.4 kmh SSW 5.0 mph8.0 kmh 29.98 in1015.2 mb 0.00 in0.0 mm 0.00 in0.0 mm 0.00 in0.0 mm
06:54 PM 62.8°F17.1°C 45.9°F7.7°C 54% 0.9 mph SW1.4 kmh SW 4.0 mph6.4 kmh 29.98 in1015.2 mb 0.00 in0.0 mm 0.00 in0.0 mm 0.00 in0.0 mm
07:04 PM 62.2°F16.8°C 46.4°F8.0°C 56% Calm Calm 2.0 mph3.2 kmh 29.98 in1015.2 mb 0.00 in0.0 mm 0.00 in0.0 mm 0.00 in0.0 mm
07:14 PM 61.0°F16.1°C 44.8°F7.1°C 55% Calm Calm 1.0 mph1.6 kmh 29.98 in1015.2 mb 0.00 in0.0 mm 0.00 in0.0 mm 0.00 in0.0 mm
07:24 PM 60.1°F15.6°C 44.8°F7.1°C 57% Calm Calm 0.9 mph1.4 kmh 29.99 in1015.6 mb 0.00 in0.0 mm 0.00 in0.0 mm 0.00 in0.0 mm
07:34 PM 58.8°F14.9°C 44.1°F6.7°C 58% Calm Calm 0.9 mph1.4 kmh 29.99 in1015.6 mb 0.00 in0.0 mm 0.00 in0.0 mm 0.00 in0.0 mm
07:44 PM 58.3°F14.6°C 44.4°F6.9°C 60% Calm Calm -- 29.99 in1015.6 mb 0.00 in0.0 mm 0.00 in0.0 mm 0.00 in0.0 mm
07:54 PM 57.6°F14.2°C 43.7°F6.5°C 60% Calm Calm -- 29.99 in1015.6 mb 0.00 in0.0 mm 0.00 in0.0 mm 0.00 in0.0 mm
08:04 PM 56.5°F13.6°C 44.1°F6.7°C 63% Calm Calm -- 29.98 in1015.2 mb 0.00 in0.0 mm 0.00 in0.0 mm 0.00 in0.0 mm
08:14 PM 55.8°F13.2°C 43.7°F6.5°C 64% Calm Calm 0.9 mph1.4 kmh 29.98 in1015.2 mb 0.00 in0.0 mm 0.00 in0.0 mm 0.00 in0.0 mm
08:24 PM 55.6°F13.1°C 44.1°F6.7°C 65% Calm Calm 0.9 mph1.4 kmh 29.99 in1015.6 mb 0.00 in0.0 mm 0.00 in0.0 mm 0.00 in0.0 mm
08:34 PM 55.0°F12.8°C 44.2°F6.8°C 67% Calm Calm 0.9 mph1.4 kmh 29.99 in1015.6 mb 0.00 in0.0 mm 0.00 in0.0 mm 0.00 in0.0 mm
08:44 PM 54.7°F12.6°C 43.9°F6.6°C 67% Calm Calm -- 29.99 in1015.6 mb 0.00 in0.0 mm 0.00 in0.0 mm 0.00 in0.0 mm
08:54 PM 54.1°F12.3°C 44.2°F6.8°C 69% Calm Calm -- 29.99 in1015.6 mb 0.00 in0.0 mm 0.00 in0.0 mm 0.00 in0.0 mm
09:04 PM 53.8°F12.1°C 43.9°F6.6°C 69% Calm Calm 0.9 mph1.4 kmh 30.00 in1015.9 mb 0.00 in0.0 mm 0.00 in0.0 mm 0.00 in0.0 mm
09:14 PM 53.2°F11.8°C 44.1°F6.7°C 71% Calm Calm 0.9 mph1.4 kmh 30.00 in1015.9 mb 0.00 in0.0 mm 0.00 in0.0 mm 0.00 in0.0 mm
09:24 PM 53.1°F11.7°C 43.5°F6.4°C 70% Calm Calm -- 30.00 in1015.9 mb 0.00 in0.0 mm 0.00 in0.0 mm 0.00 in0.0 mm
09:34 PM 52.5°F11.4°C 43.7°F6.5°C 72% Calm Calm -- 30.01 in1016.3 mb 0.00 in0.0 mm 0.00 in0.0 mm 0.00 in0.0 mm
09:44 PM 52.2°F11.2°C 43.3°F6.3°C 72% Calm Calm -- 30.01 in1016.3 mb 0.00 in0.0 mm 0.00 in0.0 mm 0.00 in0.0 mm
09:54 PM 52.0°F11.1°C 43.2°F6.2°C 72% Calm Calm -- 30.01 in1016.3 mb 0.00 in0.0 mm 0.00 in0.0 mm 0.00 in0.0 mm
10:04 PM 51.6°F10.9°C 43.3°F6.3°C 73% Calm Calm 0.9 mph1.4 kmh 30.01 in1016.3 mb 0.00 in0.0 mm 0.00 in0.0 mm 0.00 in0.0 mm
10:14 PM 51.6°F10.9°C 41.4°F5.2°C 68% 0.9 mph E1.4 kmh E 4.0 mph6.4 kmh 30.01 in1016.3 mb 0.00 in0.0 mm 0.00 in0.0 mm 0.00 in0.0 mm
10:24 PM 51.4°F10.8°C 41.2°F5.1°C 68% 2.0 mph ENE3.2 kmh ENE 4.0 mph6.4 kmh 30.01 in1016.3 mb 0.00 in0.0 mm 0.00 in0.0 mm 0.00 in0.0 mm
10:34 PM 51.1°F10.6°C 41.2°F5.1°C 69% Calm Calm 2.0 mph3.2 kmh 30.01 in1016.3 mb 0.00 in0.0 mm 0.00 in0.0 mm 0.00 in0.0 mm
10:44 PM 51.1°F10.6°C 41.2°F5.1°C 69% 2.0 mph ESE3.2 kmh ESE 4.0 mph6.4 kmh 30.01 in1016.3 mb 0.00 in0.0 mm 0.00 in0.0 mm 0.00 in0.0 mm
10:54 PM 50.7°F10.4°C 41.7°F5.4°C 71% 2.0 mph NE3.2 kmh NE 4.9 mph7.9 kmh 30.01 in1016.3 mb 0.00 in0.0 mm 0.00 in0.0 mm 0.00 in0.0 mm
11:04 PM 50.7°F10.4°C 41.7°F5.4°C 71% 2.9 mph E4.7 kmh E 4.9 mph7.9 kmh 30.00 in1015.9 mb 0.00 in0.0 mm 0.00 in0.0 mm 0.00 in0.0 mm
11:14 PM 51.1°F10.6°C 41.7°F5.4°C 70% 2.0 mph E3.2 kmh E 6.0 mph9.7 kmh 30.00 in1015.9 mb 0.00 in0.0 mm 0.00 in0.0 mm 0.00 in0.0 mm
11:24 PM 51.3°F10.7°C 41.4°F5.2°C 69% 4.0 mph ENE6.4 kmh ENE 7.0 mph11.3 kmh 30.00 in1015.9 mb 0.00 in0.0 mm 0.00 in0.0 mm 0.00 in0.0 mm
11:34 PM 50.9°F10.5°C 41.5°F5.3°C 70% 2.9 mph NE4.7 kmh NE 6.0 mph9.7 kmh 30.00 in1015.9 mb 0.00 in0.0 mm 0.00 in0.0 mm 0.00 in0.0 mm
11:44 PM 50.4°F10.2°C 41.0°F5.0°C 70% 2.0 mph E3.2 kmh E 4.0 mph6.4 kmh 30.00 in1015.9 mb 0.00 in0.0 mm 0.00 in0.0 mm 0.00 in0.0 mm
11:54 PM 50.0°F10.0°C 40.3°F4.6°C 69% 2.0 mph E3.2 kmh E 4.0 mph6.4 kmh 30.00 in1015.9 mb 0.00 in0.0 mm 0.00 in0.0 mm 0.00 in0.0 mm